Parsival — V2MS — position and weather

sailwx.info

Track history (hours):
 
Tides and Currents Weather Stations Pressure Air Temp Water Temp Dewpoint Dewpoint Depression Visibility Wind Speed Wind Dir Waves Ship Positions

Parsival

Last reported at 2014-Jul-31 14:26 UTC. Time now 2014-Jul-31 15:32 UTC.
Position N 50°58' E 001°23'.

; draft 4.9 m.

Type: Cargo ship. MMSI: 304010881.

Date/timePositionNaut miles runAvg speedWind from/ knotsBaromVisibWave heightAir tempDewpointWater temp
2014-Jul-31 14:26N 50°58' E 001°23'6 6.2
2014-Jul-31 13:32N 51°02' E 001°29'7 7.5
2014-Jul-31 12:33N 51°07' E 001°37'9 9.3
2014-Jul-31 11:33N 51°14' E 001°47'1110.6
2014-Jul-31 10:33N 51°23' E 001°58'8 7.9
2014-Jul-31 09:33N 51°22' E 002°10'9 8.7
2014-Jul-31 08:32N 51°22' E 002°24'9 9.2
2014-Jul-31 07:33N 51°22' E 002°39'8 8.0
2014-Jul-31 06:33N 51°22' E 002°52'8 7.7
2014-Jul-31 05:33N 51°25' E 003°03'8 7.6
2014-Jul-31 04:33N 51°25' E 003°15'7 7.1
2014-Jul-31 03:33N 51°25' E 003°27'6 6.4
2014-Jul-31 02:33N 51°26' E 003°37'4 4.0
2014-Jul-31 01:29N 51°28' E 003°43'0 0.0
2014-Jul-31 00:26N 51°28' E 003°43'0 0.0
2014-Jul-30 23:32N 51°28' E 003°43'0 0.0
2014-Jul-30 22:29N 51°28' E 003°43'0 0.0
2014-Jul-30 21:29N 51°28' E 003°43'0 0.0
2014-Jul-30 20:29N 51°28' E 003°43'0 0.0
2014-Jul-30 19:32N 51°28' E 003°43'0 0.0
2014-Jul-30 18:32N 51°28' E 003°43'0 0.0
2014-Jul-30 17:32N 51°28' E 003°43'0 0.0
2014-Jul-30 16:33N 51°28' E 003°43'4 3.6
2014-Jul-30 15:33N 51°26' E 003°38'9 8.9
2014-Jul-30 14:33N 51°31' E 003°26'100 7.0
2014-Jul-30 00:23N 52°56' E 001°60'8 9.2
2014-Jul-29 23:34N 52°59' E 001°48'9 9.1
2014-Jul-29 22:34N 53°05' E 001°37'5310.1
2014-Jul-29 17:20N 53°51' E 000°53'810.0
2014-Jul-29 16:33N 53°57' E 000°46'9 9.2
2014-Jul-29 15:33N 54°05' E 000°38'9 8.6
2014-Jul-29 14:33N 54°12' E 000°30'8 8.2
2014-Jul-29 13:31N 54°19' E 000°21'7 7.8
2014-Jul-29 12:33N 54°26' E 000°14'8 7.7
2014-Jul-29 11:33N 54°32' E 000°07'8 7.9
2014-Jul-29 10:33N 54°39' W 000°00'8 8.0
2014-Jul-29 09:33N 54°45' W 000°08'12 8.7
2014-Jul-29 08:07N 54°56' W 000°20'6 9.6
2014-Jul-29 07:32N 55°00' W 000°25'10 9.8
2014-Jul-29 06:33N 55°09' W 000°35'1310.1
2014-Jul-29 05:13N 55°20' W 000°47'710.1
2014-Jul-29 04:32N 55°25' W 000°54'2310.3
2014-Jul-29 02:16N 55°45' W 001°17'54 8.9
2014-Jul-28 20:10N 56°30' W 002°10'6 7.9
2014-Jul-28 19:25N 56°35' W 002°18'7 8.0
2014-Jul-28 18:33N 56°41' W 002°23'  
2014-Jul-26 09:29N 56°42' W 002°26'2 1.7
2014-Jul-26 08:33N 56°42' W 002°23'36 4.0
2014-Jul-25 23:31N 56°11' W 001°48'9 8.3
2014-Jul-25 22:27N 56°04' W 001°39'8 8.8
2014-Jul-25 21:33N 55°57' W 001°31'9 9.0
2014-Jul-25 20:33N 55°50' W 001°23'9 9.1
2014-Jul-25 19:33N 55°42' W 001°14'9 9.0
2014-Jul-25 18:30N 55°34' W 001°04'9 8.9
2014-Jul-25 17:33N 55°27' W 000°56'9 8.4
2014-Jul-25 16:29N 55°20' W 000°47'8 7.9
2014-Jul-25 15:29N 55°13' W 000°40'7 7.7
2014-Jul-25 14:33N 55°07' W 000°33'8 7.8
2014-Jul-25 13:33N 55°01' W 000°25'8 8.0
2014-Jul-25 12:33N 54°54' W 000°18'8 8.3
2014-Jul-25 11:33N 54°47' W 000°10'9 8.6
2014-Jul-25 10:33N 54°40' W 000°02'9 9.0
2014-Jul-25 09:33N 54°32' E 000°07'9 9.2
2014-Jul-25 08:33N 54°24' E 000°15'9 9.2
2014-Jul-25 07:33N 54°17' E 000°24'9 9.1
2014-Jul-25 06:33N 54°09' E 000°33'8 8.3
2014-Jul-25 05:33N 54°02' E 000°41'8 7.8
2014-Jul-25 04:33N 53°56' E 000°48'7 7.4
2014-Jul-25 03:33N 53°50' E 000°55'8 7.6
2014-Jul-25 02:33N 53°43' E 001°02'8 8.2
2014-Jul-25 01:33N 53°36' E 001°08'9 9.2
2014-Jul-25 00:33N 53°28' E 001°16'1010.1
2014-Jul-24 23:32N 53°19' E 001°25'1010.1
2014-Jul-24 22:32N 53°10' E 001°33'9 9.4
2014-Jul-24 21:33N 53°02' E 001°40'9 8.5
2014-Jul-24 20:33N 52°58' E 001°52'8 7.8
2014-Jul-24 19:33N 52°55' E 002°04'6 6.5
2014-Jul-24 18:33N 52°49' E 002°09'7 7.0
2014-Jul-24 17:30N 52°43' E 002°14'8 8.0
2014-Jul-24 16:33N 52°38' E 002°05'9 8.8
2014-Jul-24 15:33N 52°33' E 001°53'6 5.8
2014-Jul-24 14:33N 52°34' E 001°44'1 0.7
2014-Jul-24 13:34N 52°35' E 001°44'0 0.0
2014-Jul-24 12:33N 52°35' E 001°44'0 0.0
2014-Jul-24 11:33N 52°35' E 001°44'0 0.0
2014-Jul-24 10:33N 52°35' E 001°44'0 0.0
2014-Jul-24 09:33N 52°35' E 001°44'0 0.0
2014-Jul-24 08:33N 52°35' E 001°44'0 0.0
2014-Jul-24 07:34N 52°35' E 001°44'0 0.0
2014-Jul-24 06:34N 52°35' E 001°44'0 0.0
2014-Jul-24 05:33N 52°35' E 001°44'0 0.0
2014-Jul-24 04:33N 52°35' E 001°44'0 0.0
2014-Jul-24 03:33N 52°35' E 001°44'0 0.0
2014-Jul-24 02:34N 52°35' E 001°44'0 0.0
2014-Jul-24 01:33N 52°35' E 001°44'0 0.0
2014-Jul-24 00:33N 52°35' E 001°44'0 0.0
2014-Jul-23 23:33N 52°35' E 001°44'0 0.0
2014-Jul-23 22:33N 52°35' E 001°44'0 0.0
2014-Jul-23 21:33N 52°35' E 001°44'0 0.0
2014-Jul-23 20:33N 52°35' E 001°44'0 0.0
2014-Jul-23 19:34N 52°35' E 001°44'0 0.0
2014-Jul-23 18:33N 52°35' E 001°44'0 0.0
2014-Jul-23 17:33N 52°35' E 001°44'0 0.0
2014-Jul-23 16:33N 52°35' E 001°44'0 0.0
2014-Jul-23 15:33N 52°35' E 001°44'0 0.0
2014-Jul-23 14:33N 52°35' E 001°44'0 0.0
2014-Jul-23 13:34N 52°35' E 001°44'0 0.0
2014-Jul-23 12:33N 52°35' E 001°44'24 2.0
2014-Jul-23 00:33N 52°12' E 001°50'10 9.8
2014-Jul-22 23:33N 52°02' E 001°49'10 9.5
2014-Jul-22 22:33N 51°52' E 001°49'9 8.8
2014-Jul-22 21:33N 51°43' E 001°49'8 8.2
2014-Jul-22 20:33N 51°35' E 001°47'8 8.1
2014-Jul-22 19:33N 51°27' E 001°45'8 7.6
2014-Jul-22 18:33N 51°20' E 001°43'6 6.2
2014-Jul-22 17:33N 51°14' E 001°40'5 4.5
2014-Jul-22 16:33N 51°10' E 001°36'5 4.6
2014-Jul-22 15:33N 51°06' E 001°39'5 5.1
2014-Jul-22 14:33N 51°02' E 001°34'6 5.7
2014-Jul-22 13:31N 50°58' E 001°27'14 6.9
2014-Jul-22 11:29N 50°45' E 001°21'23 7.7
2014-Jul-22 08:33N 50°31' E 000°53'9 8.5
2014-Jul-22 07:32N 50°28' E 000°41'9 9.0
2014-Jul-22 06:33N 50°26' E 000°27'10 9.7
2014-Jul-22 05:33N 50°23' E 000°12'  
Track history (hours):
 
Tides and Currents Weather Stations Pressure Air Temp Water Temp Dewpoint Dewpoint Depression Visibility Wind Speed Wind Dir Waves Ship Positions

Parsival

Last reported at 2014-Jul-31 14:26 UTC. Time now 2014-Jul-31 15:32 UTC.
Position N 50°58' E 001°23'.

; draft 4.9 m.

Type: Cargo ship. MMSI: 304010881.

Date/timePositionNaut miles runAvg speedWind from/ knotsBaromVisibWave heightAir tempDewpointWater temp
2014-Jul-31 14:26N 50°58' E 001°23'6 6.2
2014-Jul-31 13:32N 51°02' E 001°29'7 7.5
2014-Jul-31 12:33N 51°07' E 001°37'9 9.3
2014-Jul-31 11:33N 51°14' E 001°47'1110.6
2014-Jul-31 10:33N 51°23' E 001°58'8 7.9
2014-Jul-31 09:33N 51°22' E 002°10'9 8.7
2014-Jul-31 08:32N 51°22' E 002°24'9 9.2
2014-Jul-31 07:33N 51°22' E 002°39'8 8.0
2014-Jul-31 06:33N 51°22' E 002°52'8 7.7
2014-Jul-31 05:33N 51°25' E 003°03'8 7.6
2014-Jul-31 04:33N 51°25' E 003°15'7 7.1
2014-Jul-31 03:33N 51°25' E 003°27'6 6.4
2014-Jul-31 02:33N 51°26' E 003°37'4 4.0
2014-Jul-31 01:29N 51°28' E 003°43'0 0.0
2014-Jul-31 00:26N 51°28' E 003°43'0 0.0
2014-Jul-30 23:32N 51°28' E 003°43'0 0.0
2014-Jul-30 22:29N 51°28' E 003°43'0 0.0
2014-Jul-30 21:29N 51°28' E 003°43'0 0.0
2014-Jul-30 20:29N 51°28' E 003°43'0 0.0
2014-Jul-30 19:32N 51°28' E 003°43'0 0.0
2014-Jul-30 18:32N 51°28' E 003°43'0 0.0
2014-Jul-30 17:32N 51°28' E 003°43'0 0.0
2014-Jul-30 16:33N 51°28' E 003°43'4 3.6
2014-Jul-30 15:33N 51°26' E 003°38'9 8.9
2014-Jul-30 14:33N 51°31' E 003°26'100 7.0
2014-Jul-30 00:23N 52°56' E 001°60'8 9.2
2014-Jul-29 23:34N 52°59' E 001°48'9 9.1
2014-Jul-29 22:34N 53°05' E 001°37'5310.1
2014-Jul-29 17:20N 53°51' E 000°53'810.0
2014-Jul-29 16:33N 53°57' E 000°46'9 9.2
2014-Jul-29 15:33N 54°05' E 000°38'9 8.6
2014-Jul-29 14:33N 54°12' E 000°30'8 8.2
2014-Jul-29 13:31N 54°19' E 000°21'7 7.8
2014-Jul-29 12:33N 54°26' E 000°14'8 7.7
2014-Jul-29 11:33N 54°32' E 000°07'8 7.9
2014-Jul-29 10:33N 54°39' W 000°00'8 8.0
2014-Jul-29 09:33N 54°45' W 000°08'12 8.7
2014-Jul-29 08:07N 54°56' W 000°20'6 9.6
2014-Jul-29 07:32N 55°00' W 000°25'10 9.8
2014-Jul-29 06:33N 55°09' W 000°35'1310.1
2014-Jul-29 05:13N 55°20' W 000°47'710.1
2014-Jul-29 04:32N 55°25' W 000°54'2310.3
2014-Jul-29 02:16N 55°45' W 001°17'54 8.9
2014-Jul-28 20:10N 56°30' W 002°10'6 7.9
2014-Jul-28 19:25N 56°35' W 002°18'7 8.0
2014-Jul-28 18:33N 56°41' W 002°23'  
2014-Jul-26 09:29N 56°42' W 002°26'2 1.7
2014-Jul-26 08:33N 56°42' W 002°23'36 4.0
2014-Jul-25 23:31N 56°11' W 001°48'9 8.3
2014-Jul-25 22:27N 56°04' W 001°39'8 8.8
2014-Jul-25 21:33N 55°57' W 001°31'9 9.0
2014-Jul-25 20:33N 55°50' W 001°23'9 9.1
2014-Jul-25 19:33N 55°42' W 001°14'9 9.0
2014-Jul-25 18:30N 55°34' W 001°04'9 8.9
2014-Jul-25 17:33N 55°27' W 000°56'9 8.4
2014-Jul-25 16:29N 55°20' W 000°47'8 7.9
2014-Jul-25 15:29N 55°13' W 000°40'7 7.7
2014-Jul-25 14:33N 55°07' W 000°33'8 7.8
2014-Jul-25 13:33N 55°01' W 000°25'8 8.0
2014-Jul-25 12:33N 54°54' W 000°18'8 8.3
2014-Jul-25 11:33N 54°47' W 000°10'9 8.6
2014-Jul-25 10:33N 54°40' W 000°02'9 9.0
2014-Jul-25 09:33N 54°32' E 000°07'9 9.2
2014-Jul-25 08:33N 54°24' E 000°15'9 9.2
2014-Jul-25 07:33N 54°17' E 000°24'9 9.1
2014-Jul-25 06:33N 54°09' E 000°33'8 8.3
2014-Jul-25 05:33N 54°02' E 000°41'8 7.8
2014-Jul-25 04:33N 53°56' E 000°48'7 7.4
2014-Jul-25 03:33N 53°50' E 000°55'8 7.6
2014-Jul-25 02:33N 53°43' E 001°02'8 8.2
2014-Jul-25 01:33N 53°36' E 001°08'9 9.2
2014-Jul-25 00:33N 53°28' E 001°16'1010.1
2014-Jul-24 23:32N 53°19' E 001°25'1010.1
2014-Jul-24 22:32N 53°10' E 001°33'9 9.4
2014-Jul-24 21:33N 53°02' E 001°40'9 8.5
2014-Jul-24 20:33N 52°58' E 001°52'8 7.8
2014-Jul-24 19:33N 52°55' E 002°04'6 6.5
2014-Jul-24 18:33N 52°49' E 002°09'7 7.0
2014-Jul-24 17:30N 52°43' E 002°14'8 8.0
2014-Jul-24 16:33N 52°38' E 002°05'9 8.8
2014-Jul-24 15:33N 52°33' E 001°53'6 5.8
2014-Jul-24 14:33N 52°34' E 001°44'1 0.7
2014-Jul-24 13:34N 52°35' E 001°44'0 0.0
2014-Jul-24 12:33N 52°35' E 001°44'0 0.0
2014-Jul-24 11:33N 52°35' E 001°44'0 0.0
2014-Jul-24 10:33N 52°35' E 001°44'0 0.0
2014-Jul-24 09:33N 52°35' E 001°44'0 0.0
2014-Jul-24 08:33N 52°35' E 001°44'0 0.0
2014-Jul-24 07:34N 52°35' E 001°44'0 0.0
2014-Jul-24 06:34N 52°35' E 001°44'0 0.0
2014-Jul-24 05:33N 52°35' E 001°44'0 0.0
2014-Jul-24 04:33N 52°35' E 001°44'0 0.0
2014-Jul-24 03:33N 52°35' E 001°44'0 0.0
2014-Jul-24 02:34N 52°35' E 001°44'0 0.0
2014-Jul-24 01:33N 52°35' E 001°44'0 0.0
2014-Jul-24 00:33N 52°35' E 001°44'0 0.0
2014-Jul-23 23:33N 52°35' E 001°44'0 0.0
2014-Jul-23 22:33N 52°35' E 001°44'0 0.0
2014-Jul-23 21:33N 52°35' E 001°44'0 0.0
2014-Jul-23 20:33N 52°35' E 001°44'0 0.0
2014-Jul-23 19:34N 52°35' E 001°44'0 0.0
2014-Jul-23 18:33N 52°35' E 001°44'0 0.0
2014-Jul-23 17:33N 52°35' E 001°44'0 0.0
2014-Jul-23 16:33N 52°35' E 001°44'0 0.0
2014-Jul-23 15:33N 52°35' E 001°44'0 0.0
2014-Jul-23 14:33N 52°35' E 001°44'0 0.0
2014-Jul-23 13:34N 52°35' E 001°44'0 0.0
2014-Jul-23 12:33N 52°35' E 001°44'24 2.0
2014-Jul-23 00:33N 52°12' E 001°50'10 9.8
2014-Jul-22 23:33N 52°02' E 001°49'10 9.5
2014-Jul-22 22:33N 51°52' E 001°49'9 8.8
2014-Jul-22 21:33N 51°43' E 001°49'8 8.2
2014-Jul-22 20:33N 51°35' E 001°47'8 8.1
2014-Jul-22 19:33N 51°27' E 001°45'8 7.6
2014-Jul-22 18:33N 51°20' E 001°43'6 6.2
2014-Jul-22 17:33N 51°14' E 001°40'5 4.5
2014-Jul-22 16:33N 51°10' E 001°36'5 4.6
2014-Jul-22 15:33N 51°06' E 001°39'5 5.1
2014-Jul-22 14:33N 51°02' E 001°34'6 5.7
2014-Jul-22 13:31N 50°58' E 001°27'14 6.9
2014-Jul-22 11:29N 50°45' E 001°21'23 7.7
2014-Jul-22 08:33N 50°31' E 000°53'9 8.5
2014-Jul-22 07:32N 50°28' E 000°41'9 9.0
2014-Jul-22 06:33N 50°26' E 000°27'10 9.7
2014-Jul-22 05:33N 50°23' E 000°12'  

Dump ship's entire track history